sensor_id;sensor_type;location;lat;lon;timestamp;noise_LAeq;noise_LA_min;noise_LA_max;noise_LA01;noise_LA95
81493;Laerm;70900;51.798;10.954;2023-08-31T00:01:36;28.55;24.74;34.02;;
81493;Laerm;70900;51.798;10.954;2023-08-31T00:04:03;26.43;24.30;35.28;;
81493;Laerm;70900;51.798;10.954;2023-08-31T00:06:29;26.85;24.24;36.37;;
81493;Laerm;70900;51.798;10.954;2023-08-31T00:08:54;28.09;24.50;35.40;;
81493;Laerm;70900;51.798;10.954;2023-08-31T00:11:20;28.48;24.25;39.41;;
81493;Laerm;70900;51.798;10.954;2023-08-31T00:13:46;31.51;27.21;36.26;;
81493;Laerm;70900;51.798;10.954;2023-08-31T00:16:11;35.73;29.16;43.44;;
81493;Laerm;70900;51.798;10.954;2023-08-31T00:18:37;33.51;29.61;49.99;;
81493;Laerm;70900;51.798;10.954;2023-08-31T00:21:03;35.59;32.19;43.80;;
81493;Laerm;70900;51.798;10.954;2023-08-31T00:23:29;34.62;28.03;44.91;;
81493;Laerm;70900;51.798;10.954;2023-08-31T00:25:54;36.60;31.45;47.67;;
81493;Laerm;70900;51.798;10.954;2023-08-31T00:28:22;36.35;31.23;44.71;;
81493;Laerm;70900;51.798;10.954;2023-08-31T00:30:47;34.47;29.40;40.46;;
81493;Laerm;70900;51.798;10.954;2023-08-31T00:33:13;35.53;29.58;45.49;;
81493;Laerm;70900;51.798;10.954;2023-08-31T00:35:39;35.55;29.66;42.25;;
81493;Laerm;70900;51.798;10.954;2023-08-31T00:38:10;35.66;28.92;43.35;;
81493;Laerm;70900;51.798;10.954;2023-08-31T00:40:39;37.34;29.86;49.79;;
81493;Laerm;70900;51.798;10.954;2023-08-31T00:43:06;35.61;30.75;42.26;;
81493;Laerm;70900;51.798;10.954;2023-08-31T00:45:32;33.91;29.32;44.06;;
81493;Laerm;70900;51.798;10.954;2023-08-31T00:47:58;31.71;28.61;38.03;;
81493;Laerm;70900;51.798;10.954;2023-08-31T00:50:23;33.30;27.76;38.71;;
81493;Laerm;70900;51.798;10.954;2023-08-31T00:52:48;31.78;26.82;37.13;;
81493;Laerm;70900;51.798;10.954;2023-08-31T00:55:14;31.22;26.10;43.42;;
81493;Laerm;70900;51.798;10.954;2023-08-31T00:57:42;30.06;25.76;34.54;;
81493;Laerm;70900;51.798;10.954;2023-08-31T01:00:08;33.06;26.95;40.74;;
81493;Laerm;70900;51.798;10.954;2023-08-31T01:02:36;33.78;28.17;39.22;;
81493;Laerm;70900;51.798;10.954;2023-08-31T01:05:11;33.78;29.55;41.30;;
81493;Laerm;70900;51.798;10.954;2023-08-31T01:13:00;32.38;28.49;39.77;;
81493;Laerm;70900;51.798;10.954;2023-08-31T01:15:27;28.96;25.84;35.66;;
81493;Laerm;70900;51.798;10.954;2023-08-31T01:17:57;29.28;26.94;33.42;;
81493;Laerm;70900;51.798;10.954;2023-08-31T01:20:26;30.26;26.00;39.50;;
81493;Laerm;70900;51.798;10.954;2023-08-31T01:23:04;33.10;26.80;38.13;;
81493;Laerm;70900;51.798;10.954;2023-08-31T01:25:31;30.42;26.38;36.73;;
81493;Laerm;70900;51.798;10.954;2023-08-31T01:27:58;27.58;24.36;38.15;;
81493;Laerm;70900;51.798;10.954;2023-08-31T01:30:23;30.34;26.38;36.87;;
81493;Laerm;70900;51.798;10.954;2023-08-31T01:32:49;29.49;25.89;39.15;;
81493;Laerm;70900;51.798;10.954;2023-08-31T01:35:15;30.29;25.66;43.96;;
81493;Laerm;70900;51.798;10.954;2023-08-31T01:37:50;32.90;25.31;43.54;;
81493;Laerm;70900;51.798;10.954;2023-08-31T01:40:21;30.12;25.54;36.40;;
81493;Laerm;70900;51.798;10.954;2023-08-31T01:42:48;28.37;24.58;37.33;;
81493;Laerm;70900;51.798;10.954;2023-08-31T01:45:18;27.67;24.00;34.82;;
81493;Laerm;70900;51.798;10.954;2023-08-31T01:47:45;30.05;24.10;41.32;;
81493;Laerm;70900;51.798;10.954;2023-08-31T01:50:11;30.81;25.12;40.79;;
81493;Laerm;70900;51.798;10.954;2023-08-31T01:52:36;31.14;26.30;44.93;;
81493;Laerm;70900;51.798;10.954;2023-08-31T01:55:01;31.36;25.15;46.17;;
81493;Laerm;70900;51.798;10.954;2023-08-31T01:57:28;30.97;25.00;39.82;;
81493;Laerm;70900;51.798;10.954;2023-08-31T01:59:53;28.75;24.60;36.87;;
81493;Laerm;70900;51.798;10.954;2023-08-31T02:02:19;27.95;24.59;38.53;;
81493;Laerm;70900;51.798;10.954;2023-08-31T02:04:45;31.17;25.98;48.15;;
81493;Laerm;70900;51.798;10.954;2023-08-31T02:07:11;30.56;24.59;40.61;;
81493;Laerm;70900;51.798;10.954;2023-08-31T02:09:36;29.43;25.83;36.97;;
81493;Laerm;70900;51.798;10.954;2023-08-31T02:12:02;29.37;24.55;36.89;;
81493;Laerm;70900;51.798;10.954;2023-08-31T02:14:29;31.29;24.92;44.46;;
81493;Laerm;70900;51.798;10.954;2023-08-31T02:16:54;29.83;24.70;39.55;;
81493;Laerm;70900;51.798;10.954;2023-08-31T02:19:19;31.46;25.76;38.03;;
81493;Laerm;70900;51.798;10.954;2023-08-31T02:21:45;28.68;24.47;37.71;;
81493;Laerm;70900;51.798;10.954;2023-08-31T02:24:10;28.94;24.58;36.15;;
81493;Laerm;70900;51.798;10.954;2023-08-31T02:26:35;32.95;26.44;46.10;;
81493;Laerm;70900;51.798;10.954;2023-08-31T02:29:02;35.90;31.98;49.57;;
81493;Laerm;70900;51.798;10.954;2023-08-31T02:31:27;33.49;30.75;40.68;;
81493;Laerm;70900;51.798;10.954;2023-08-31T02:33:53;32.42;28.61;39.86;;
81493;Laerm;70900;51.798;10.954;2023-08-31T02:36:18;31.13;28.01;38.33;;
81493;Laerm;70900;51.798;10.954;2023-08-31T02:38:45;30.00;27.16;37.45;;
81493;Laerm;70900;51.798;10.954;2023-08-31T02:41:11;34.90;27.51;52.09;;
81493;Laerm;70900;51.798;10.954;2023-08-31T02:43:36;31.22;28.38;36.61;;
81493;Laerm;70900;51.798;10.954;2023-08-31T02:46:02;53.42;31.96;70.18;;
81493;Laerm;70900;51.798;10.954;2023-08-31T02:48:28;33.75;29.38;46.73;;
81493;Laerm;70900;51.798;10.954;2023-08-31T02:50:55;34.66;30.22;41.95;;
81493;Laerm;70900;51.798;10.954;2023-08-31T02:53:21;53.65;31.38;68.22;;
81493;Laerm;70900;51.798;10.954;2023-08-31T02:55:46;33.42;27.72;44.65;;
81493;Laerm;70900;51.798;10.954;2023-08-31T02:58:11;31.40;28.25;43.37;;
81493;Laerm;70900;51.798;10.954;2023-08-31T03:00:37;33.40;28.80;46.13;;
81493;Laerm;70900;51.798;10.954;2023-08-31T03:03:07;31.17;27.61;39.99;;
81493;Laerm;70900;51.798;10.954;2023-08-31T03:05:33;32.20;29.16;40.50;;
81493;Laerm;70900;51.798;10.954;2023-08-31T03:07:59;33.38;29.77;39.42;;
81493;Laerm;70900;51.798;10.954;2023-08-31T03:10:24;37.97;31.77;48.98;;
81493;Laerm;70900;51.798;10.954;2023-08-31T03:12:49;33.46;29.93;45.38;;
81493;Laerm;70900;51.798;10.954;2023-08-31T03:15:15;37.87;32.19;48.97;;
81493;Laerm;70900;51.798;10.954;2023-08-31T03:17:40;38.54;31.76;62.30;;
81493;Laerm;70900;51.798;10.954;2023-08-31T03:20:06;36.37;31.24;46.20;;
81493;Laerm;70900;51.798;10.954;2023-08-31T03:22:32;52.87;32.86;69.99;;
81493;Laerm;70900;51.798;10.954;2023-08-31T03:24:57;36.23;33.16;42.65;;
81493;Laerm;70900;51.798;10.954;2023-08-31T03:27:23;51.13;33.22;62.77;;
81493;Laerm;70900;51.798;10.954;2023-08-31T03:29:48;37.54;31.75;53.75;;
81493;Laerm;70900;51.798;10.954;2023-08-31T03:32:14;36.35;30.64;44.19;;
81493;Laerm;70900;51.798;10.954;2023-08-31T03:34:39;38.29;34.13;45.73;;
81493;Laerm;70900;51.798;10.954;2023-08-31T03:37:04;45.77;32.15;60.62;;
81493;Laerm;70900;51.798;10.954;2023-08-31T03:39:30;36.87;32.79;47.45;;
81493;Laerm;70900;51.798;10.954;2023-08-31T03:41:55;38.05;34.16;54.84;;
81493;Laerm;70900;51.798;10.954;2023-08-31T03:44:21;43.16;33.58;56.44;;
81493;Laerm;70900;51.798;10.954;2023-08-31T03:46:46;50.99;33.37;63.40;;
81493;Laerm;70900;51.798;10.954;2023-08-31T03:49:12;42.29;32.75;62.39;;
81493;Laerm;70900;51.798;10.954;2023-08-31T03:51:37;46.92;33.83;64.94;;
81493;Laerm;70900;51.798;10.954;2023-08-31T03:54:02;59.34;34.35;76.79;;
81493;Laerm;70900;51.798;10.954;2023-08-31T03:56:28;47.60;33.36;62.51;;
81493;Laerm;70900;51.798;10.954;2023-08-31T03:58:53;55.00;33.83;68.08;;
81493;Laerm;70900;51.798;10.954;2023-08-31T04:01:19;51.16;33.59;64.24;;
81493;Laerm;70900;51.798;10.954;2023-08-31T04:03:44;51.36;32.16;65.18;;
81493;Laerm;70900;51.798;10.954;2023-08-31T04:06:10;54.77;33.35;70.34;;
81493;Laerm;70900;51.798;10.954;2023-08-31T04:08:35;47.56;34.50;64.77;;
81493;Laerm;70900;51.798;10.954;2023-08-31T04:11:00;45.49;34.35;58.80;;
81493;Laerm;70900;51.798;10.954;2023-08-31T04:13:26;44.97;34.50;57.12;;
81493;Laerm;70900;51.798;10.954;2023-08-31T04:15:54;55.46;36.30;68.86;;
81493;Laerm;70900;51.798;10.954;2023-08-31T04:18:20;54.17;35.55;71.81;;
81493;Laerm;70900;51.798;10.954;2023-08-31T04:20:52;55.43;36.79;70.22;;
81493;Laerm;70900;51.798;10.954;2023-08-31T04:23:18;56.45;36.58;68.88;;
81493;Laerm;70900;51.798;10.954;2023-08-31T04:25:44;57.22;36.26;77.82;;
81493;Laerm;70900;51.798;10.954;2023-08-31T04:28:10;54.99;36.16;68.39;;
81493;Laerm;70900;51.798;10.954;2023-08-31T04:30:35;50.31;35.59;64.27;;
81493;Laerm;70900;51.798;10.954;2023-08-31T04:33:00;62.14;38.08;79.18;;
81493;Laerm;70900;51.798;10.954;2023-08-31T04:35:26;53.81;34.53;71.35;;
81493;Laerm;70900;51.798;10.954;2023-08-31T04:37:52;57.86;40.21;73.63;;
81493;Laerm;70900;51.798;10.954;2023-08-31T04:40:17;58.19;38.81;69.17;;
81493;Laerm;70900;51.798;10.954;2023-08-31T04:42:43;52.64;36.73;67.29;;
81493;Laerm;70900;51.798;10.954;2023-08-31T04:45:08;52.03;36.03;65.03;;
81493;Laerm;70900;51.798;10.954;2023-08-31T04:47:34;46.34;34.93;63.51;;
81493;Laerm;70900;51.798;10.954;2023-08-31T04:49:59;57.96;35.29;70.88;;
81493;Laerm;70900;51.798;10.954;2023-08-31T04:52:24;56.39;35.54;71.98;;
81493;Laerm;70900;51.798;10.954;2023-08-31T04:54:50;56.27;36.96;70.53;;
81493;Laerm;70900;51.798;10.954;2023-08-31T04:57:15;55.74;37.74;69.19;;
81493;Laerm;70900;51.798;10.954;2023-08-31T04:59:41;56.95;37.72;73.49;;
81493;Laerm;70900;51.798;10.954;2023-08-31T05:02:06;55.98;37.93;69.91;;
81493;Laerm;70900;51.798;10.954;2023-08-31T05:04:32;56.03;38.62;68.46;;
81493;Laerm;70900;51.798;10.954;2023-08-31T05:06:57;60.79;37.57;72.21;;
81493;Laerm;70900;51.798;10.954;2023-08-31T05:09:24;62.12;35.36;77.40;;
81493;Laerm;70900;51.798;10.954;2023-08-31T05:11:49;56.23;36.26;78.17;;
81493;Laerm;70900;51.798;10.954;2023-08-31T05:14:14;60.55;41.39;71.44;;
81493;Laerm;70900;51.798;10.954;2023-08-31T05:16:40;54.14;35.91;66.37;;
81493;Laerm;70900;51.798;10.954;2023-08-31T05:19:05;51.19;34.55;67.39;;
81493;Laerm;70900;51.798;10.954;2023-08-31T05:21:31;57.95;36.08;71.52;;
81493;Laerm;70900;51.798;10.954;2023-08-31T05:23:56;59.23;42.49;73.83;;
81493;Laerm;70900;51.798;10.954;2023-08-31T05:26:22;58.52;40.35;68.32;;
81493;Laerm;70900;51.798;10.954;2023-08-31T05:28:47;59.47;42.47;74.62;;
81493;Laerm;70900;51.798;10.954;2023-08-31T05:31:13;58.00;42.59;66.46;;
81493;Laerm;70900;51.798;10.954;2023-08-31T05:33:38;71.92;54.59;81.95;;
81493;Laerm;70900;51.798;10.954;2023-08-31T05:36:03;61.62;48.77;70.32;;
81493;Laerm;70900;51.798;10.954;2023-08-31T05:38:29;61.09;46.58;71.70;;
81493;Laerm;70900;51.798;10.954;2023-08-31T05:40:54;56.11;45.41;71.18;;
81493;Laerm;70900;51.798;10.954;2023-08-31T05:43:28;57.68;41.06;69.58;;
81493;Laerm;70900;51.798;10.954;2023-08-31T05:45:53;57.41;39.56;68.34;;
81493;Laerm;70900;51.798;10.954;2023-08-31T05:48:18;53.02;38.98;72.80;;
81493;Laerm;70900;51.798;10.954;2023-08-31T05:50:44;52.57;39.24;68.21;;
81493;Laerm;70900;51.798;10.954;2023-08-31T05:53:09;74.85;49.88;85.30;;
81493;Laerm;70900;51.798;10.954;2023-08-31T05:55:35;59.75;49.08;67.41;;
81493;Laerm;70900;51.798;10.954;2023-08-31T05:58:00;56.24;38.27;70.20;;
81493;Laerm;70900;51.798;10.954;2023-08-31T06:00:26;52.86;36.70;65.66;;
81493;Laerm;70900;51.798;10.954;2023-08-31T06:02:51;63.42;39.61;79.20;;
81493;Laerm;70900;51.798;10.954;2023-08-31T06:05:17;50.10;35.18;66.68;;
81493;Laerm;70900;51.798;10.954;2023-08-31T06:07:43;54.89;36.31;68.34;;
81493;Laerm;70900;51.798;10.954;2023-08-31T06:10:08;59.31;38.52;70.15;;
81493;Laerm;70900;51.798;10.954;2023-08-31T06:12:34;54.95;36.94;68.92;;
81493;Laerm;70900;51.798;10.954;2023-08-31T06:14:59;53.49;37.96;64.34;;
81493;Laerm;70900;51.798;10.954;2023-08-31T06:17:25;55.70;41.17;69.51;;
81493;Laerm;70900;51.798;10.954;2023-08-31T06:19:51;55.28;44.51;67.64;;
81493;Laerm;70900;51.798;10.954;2023-08-31T06:22:16;48.90;42.34;59.90;;
81493;Laerm;70900;51.798;10.954;2023-08-31T06:24:43;56.56;44.19;69.72;;
81493;Laerm;70900;51.798;10.954;2023-08-31T06:27:08;57.02;40.33;69.89;;
81493;Laerm;70900;51.798;10.954;2023-08-31T06:29:34;56.29;40.78;67.45;;
81493;Laerm;70900;51.798;10.954;2023-08-31T06:31:59;53.40;40.83;65.64;;
81493;Laerm;70900;51.798;10.954;2023-08-31T06:34:25;60.46;40.46;75.47;;
81493;Laerm;70900;51.798;10.954;2023-08-31T06:36:50;57.34;39.72;71.70;;
81493;Laerm;70900;51.798;10.954;2023-08-31T06:39:15;57.80;39.15;72.69;;
81493;Laerm;70900;51.798;10.954;2023-08-31T06:41:41;57.10;39.59;70.00;;
81493;Laerm;70900;51.798;10.954;2023-08-31T06:44:06;42.62;39.02;49.50;;
81493;Laerm;70900;51.798;10.954;2023-08-31T06:46:31;60.24;39.46;72.44;;
81493;Laerm;70900;51.798;10.954;2023-08-31T06:49:02;62.93;43.49;75.54;;
81493;Laerm;70900;51.798;10.954;2023-08-31T06:51:29;56.86;40.13;70.16;;
81493;Laerm;70900;51.798;10.954;2023-08-31T06:53:55;56.26;39.56;70.45;;
81493;Laerm;70900;51.798;10.954;2023-08-31T06:56:20;64.37;38.19;81.51;;
81493;Laerm;70900;51.798;10.954;2023-08-31T06:58:46;60.11;36.68;75.56;;
81493;Laerm;70900;51.798;10.954;2023-08-31T07:01:12;49.28;37.27;64.48;;
81493;Laerm;70900;51.798;10.954;2023-08-31T07:03:38;56.25;36.37;67.47;;
81493;Laerm;70900;51.798;10.954;2023-08-31T07:06:03;56.62;35.09;68.51;;
81493;Laerm;70900;51.798;10.954;2023-08-31T07:08:28;54.47;35.25;67.56;;
81493;Laerm;70900;51.798;10.954;2023-08-31T07:10:55;53.48;34.71;70.16;;
81493;Laerm;70900;51.798;10.954;2023-08-31T07:13:20;60.00;37.22;69.71;;
81493;Laerm;70900;51.798;10.954;2023-08-31T07:15:46;59.00;37.54;69.41;;
81493;Laerm;70900;51.798;10.954;2023-08-31T07:18:14;57.68;36.33;69.07;;
81493;Laerm;70900;51.798;10.954;2023-08-31T07:20:39;56.02;36.26;66.94;;
81493;Laerm;70900;51.798;10.954;2023-08-31T07:23:05;55.35;36.84;68.16;;
81493;Laerm;70900;51.798;10.954;2023-08-31T07:25:30;56.93;36.02;72.99;;
81493;Laerm;70900;51.798;10.954;2023-08-31T07:27:55;48.45;35.53;62.68;;
81493;Laerm;70900;51.798;10.954;2023-08-31T07:30:21;52.41;35.69;72.64;;
81493;Laerm;70900;51.798;10.954;2023-08-31T07:32:46;56.42;38.46;65.07;;
81493;Laerm;70900;51.798;10.954;2023-08-31T07:35:12;56.98;37.58;76.88;;
81493;Laerm;70900;51.798;10.954;2023-08-31T07:37:37;56.31;38.61;72.94;;
81493;Laerm;70900;51.798;10.954;2023-08-31T07:40:03;54.85;41.39;67.94;;
81493;Laerm;70900;51.798;10.954;2023-08-31T07:42:33;57.65;40.08;70.73;;
81493;Laerm;70900;51.798;10.954;2023-08-31T07:44:59;61.61;39.00;75.48;;
81493;Laerm;70900;51.798;10.954;2023-08-31T07:47:24;52.53;37.96;68.09;;
81493;Laerm;70900;51.798;10.954;2023-08-31T07:49:49;53.14;38.57;65.62;;
81493;Laerm;70900;51.798;10.954;2023-08-31T07:52:15;54.27;37.83;66.54;;
81493;Laerm;70900;51.798;10.954;2023-08-31T07:54:40;56.91;38.83;68.83;;
81493;Laerm;70900;51.798;10.954;2023-08-31T07:57:05;54.31;37.86;64.52;;
81493;Laerm;70900;51.798;10.954;2023-08-31T07:59:31;53.43;38.62;64.05;;
81493;Laerm;70900;51.798;10.954;2023-08-31T08:01:56;56.90;39.42;70.69;;
81493;Laerm;70900;51.798;10.954;2023-08-31T08:04:21;54.06;36.81;69.51;;
81493;Laerm;70900;51.798;10.954;2023-08-31T08:06:49;46.31;37.12;58.94;;
81493;Laerm;70900;51.798;10.954;2023-08-31T08:09:14;56.82;37.69;66.73;;
81493;Laerm;70900;51.798;10.954;2023-08-31T08:11:40;54.07;38.25;65.99;;
81493;Laerm;70900;51.798;10.954;2023-08-31T08:14:07;53.09;38.64;64.87;;
81493;Laerm;70900;51.798;10.954;2023-08-31T08:16:32;55.19;40.82;67.05;;
81493;Laerm;70900;51.798;10.954;2023-08-31T08:19:00;54.60;42.00;68.26;;
81493;Laerm;70900;51.798;10.954;2023-08-31T08:21:25;55.42;43.00;68.58;;
81493;Laerm;70900;51.798;10.954;2023-08-31T08:23:51;54.04;42.39;65.51;;
81493;Laerm;70900;51.798;10.954;2023-08-31T08:26:17;59.40;40.77;70.44;;
81493;Laerm;70900;51.798;10.954;2023-08-31T08:28:42;52.41;39.77;65.67;;
81493;Laerm;70900;51.798;10.954;2023-08-31T08:31:08;52.35;38.99;66.49;;
81493;Laerm;70900;51.798;10.954;2023-08-31T08:33:33;64.56;43.04;85.04;;
81493;Laerm;70900;51.798;10.954;2023-08-31T08:35:58;50.69;38.73;64.64;;
81493;Laerm;70900;51.798;10.954;2023-08-31T08:38:25;58.81;39.92;74.14;;
81493;Laerm;70900;51.798;10.954;2023-08-31T08:40:50;56.20;43.19;72.57;;
81493;Laerm;70900;51.798;10.954;2023-08-31T08:43:16;55.39;42.88;66.28;;
81493;Laerm;70900;51.798;10.954;2023-08-31T08:45:45;55.88;40.27;65.68;;
81493;Laerm;70900;51.798;10.954;2023-08-31T08:48:12;57.97;39.72;67.54;;
81493;Laerm;70900;51.798;10.954;2023-08-31T08:50:38;59.42;38.91;74.51;;
81493;Laerm;70900;51.798;10.954;2023-08-31T08:53:05;52.55;41.43;63.70;;
81493;Laerm;70900;51.798;10.954;2023-08-31T08:55:30;57.06;39.84;66.61;;
81493;Laerm;70900;51.798;10.954;2023-08-31T08:57:57;53.34;40.54;64.01;;
81493;Laerm;70900;51.798;10.954;2023-08-31T09:00:23;56.20;41.80;67.48;;
81493;Laerm;70900;51.798;10.954;2023-08-31T09:02:48;47.95;41.76;58.29;;
81493;Laerm;70900;51.798;10.954;2023-08-31T09:05:13;59.82;45.87;70.61;;
81493;Laerm;70900;51.798;10.954;2023-08-31T09:07:46;54.95;40.92;65.11;;
81493;Laerm;70900;51.798;10.954;2023-08-31T09:10:24;58.31;42.64;72.13;;
81493;Laerm;70900;51.798;10.954;2023-08-31T09:12:50;57.73;41.60;69.78;;
81493;Laerm;70900;51.798;10.954;2023-08-31T09:15:16;54.26;40.55;69.66;;
81493;Laerm;70900;51.798;10.954;2023-08-31T09:17:42;52.97;39.49;64.92;;
81493;Laerm;70900;51.798;10.954;2023-08-31T09:20:09;58.20;40.86;70.11;;
81493;Laerm;70900;51.798;10.954;2023-08-31T09:22:35;55.75;40.51;67.35;;
81493;Laerm;70900;51.798;10.954;2023-08-31T09:25:00;58.68;42.56;73.04;;
81493;Laerm;70900;51.798;10.954;2023-08-31T09:27:27;58.45;40.97;70.00;;
81493;Laerm;70900;51.798;10.954;2023-08-31T09:29:55;55.51;41.44;65.41;;
81493;Laerm;70900;51.798;10.954;2023-08-31T09:32:21;61.84;41.92;76.58;;
81493;Laerm;70900;51.798;10.954;2023-08-31T09:34:46;53.36;41.37;68.13;;
81493;Laerm;70900;51.798;10.954;2023-08-31T09:37:12;61.55;40.52;77.52;;
81493;Laerm;70900;51.798;10.954;2023-08-31T09:39:39;58.62;44.99;72.76;;
81493;Laerm;70900;51.798;10.954;2023-08-31T09:42:04;55.27;41.03;64.14;;
81493;Laerm;70900;51.798;10.954;2023-08-31T09:44:29;54.95;43.94;66.53;;
81493;Laerm;70900;51.798;10.954;2023-08-31T09:46:55;56.73;40.21;66.79;;
81493;Laerm;70900;51.798;10.954;2023-08-31T09:49:21;49.55;39.90;62.38;;
81493;Laerm;70900;51.798;10.954;2023-08-31T09:51:48;55.36;41.27;68.50;;
81493;Laerm;70900;51.798;10.954;2023-08-31T09:54:15;52.73;39.26;63.37;;
81493;Laerm;70900;51.798;10.954;2023-08-31T09:56:42;57.81;41.53;70.70;;
81493;Laerm;70900;51.798;10.954;2023-08-31T09:59:08;55.61;39.07;66.12;;
81493;Laerm;70900;51.798;10.954;2023-08-31T10:01:34;48.25;38.15;62.22;;
81493;Laerm;70900;51.798;10.954;2023-08-31T10:04:00;55.69;38.54;70.21;;
81493;Laerm;70900;51.798;10.954;2023-08-31T10:06:27;58.42;41.67;72.20;;
81493;Laerm;70900;51.798;10.954;2023-08-31T10:08:53;56.39;38.45;72.35;;
81493;Laerm;70900;51.798;10.954;2023-08-31T10:11:19;53.62;39.70;66.89;;
81493;Laerm;70900;51.798;10.954;2023-08-31T10:13:44;49.33;38.57;65.00;;
81493;Laerm;70900;51.798;10.954;2023-08-31T10:16:11;55.30;41.71;70.32;;
81493;Laerm;70900;51.798;10.954;2023-08-31T10:18:36;53.35;42.66;67.33;;
81493;Laerm;70900;51.798;10.954;2023-08-31T10:21:02;53.32;42.11;67.59;;
81493;Laerm;70900;51.798;10.954;2023-08-31T10:23:30;59.59;46.60;71.52;;
81493;Laerm;70900;51.798;10.954;2023-08-31T10:28:24;54.84;44.47;65.20;;
81493;Laerm;70900;51.798;10.954;2023-08-31T10:31:05;53.33;42.74;63.38;;
81493;Laerm;70900;51.798;10.954;2023-08-31T10:33:32;57.06;39.40;70.18;;
81493;Laerm;70900;51.798;10.954;2023-08-31T10:35:59;63.05;37.74;79.98;;
81493;Laerm;70900;51.798;10.954;2023-08-31T10:46:17;55.32;40.21;68.33;;
81493;Laerm;70900;51.798;10.954;2023-08-31T10:48:49;56.06;40.58;68.44;;
81493;Laerm;70900;51.798;10.954;2023-08-31T10:51:16;54.88;38.52;69.14;;
81493;Laerm;70900;51.798;10.954;2023-08-31T10:53:45;56.05;38.30;66.85;;
81493;Laerm;70900;51.798;10.954;2023-08-31T10:56:11;53.77;38.05;65.56;;
81493;Laerm;70900;51.798;10.954;2023-08-31T10:58:36;59.23;39.13;77.04;;
81493;Laerm;70900;51.798;10.954;2023-08-31T11:01:03;57.81;40.75;75.09;;
81493;Laerm;70900;51.798;10.954;2023-08-31T11:03:31;59.99;44.76;71.01;;
81493;Laerm;70900;51.798;10.954;2023-08-31T11:05:57;55.80;40.48;68.98;;
81493;Laerm;70900;51.798;10.954;2023-08-31T11:08:23;56.53;44.59;68.54;;
81493;Laerm;70900;51.798;10.954;2023-08-31T11:10:48;62.36;44.47;75.30;;
81493;Laerm;70900;51.798;10.954;2023-08-31T11:13:18;52.91;36.71;66.78;;
81493;Laerm;70900;51.798;10.954;2023-08-31T11:15:47;55.44;36.60;66.97;;
81493;Laerm;70900;51.798;10.954;2023-08-31T11:18:12;56.85;36.71;72.26;;
81493;Laerm;70900;51.798;10.954;2023-08-31T11:20:40;56.27;36.56;69.51;;
81493;Laerm;70900;51.798;10.954;2023-08-31T11:23:06;64.26;39.76;77.78;;
81493;Laerm;70900;51.798;10.954;2023-08-31T11:25:31;55.14;38.65;69.06;;
81493;Laerm;70900;51.798;10.954;2023-08-31T11:27:57;57.24;38.68;73.39;;
81493;Laerm;70900;51.798;10.954;2023-08-31T11:30:24;53.76;40.31;68.14;;
81493;Laerm;70900;51.798;10.954;2023-08-31T11:32:50;59.60;41.45;71.72;;
81493;Laerm;70900;51.798;10.954;2023-08-31T11:35:16;59.17;40.33;73.79;;
81493;Laerm;70900;51.798;10.954;2023-08-31T11:37:42;60.68;41.58;75.04;;
81493;Laerm;70900;51.798;10.954;2023-08-31T11:40:08;60.63;41.86;76.28;;
81493;Laerm;70900;51.798;10.954;2023-08-31T11:42:34;56.50;40.68;70.20;;
81493;Laerm;70900;51.798;10.954;2023-08-31T11:44:59;55.55;41.88;69.75;;
81493;Laerm;70900;51.798;10.954;2023-08-31T11:47:25;56.68;40.44;71.43;;
81493;Laerm;70900;51.798;10.954;2023-08-31T11:49:50;59.78;44.40;73.10;;
81493;Laerm;70900;51.798;10.954;2023-08-31T11:52:16;59.74;42.38;75.12;;
81493;Laerm;70900;51.798;10.954;2023-08-31T11:54:42;58.36;42.00;70.60;;
81493;Laerm;70900;51.798;10.954;2023-08-31T11:57:08;56.40;41.47;67.87;;
81493;Laerm;70900;51.798;10.954;2023-08-31T11:59:34;63.09;45.08;80.53;;
81493;Laerm;70900;51.798;10.954;2023-08-31T12:01:59;57.52;46.46;69.98;;
81493;Laerm;70900;51.798;10.954;2023-08-31T12:04:25;57.35;45.55;68.75;;
81493;Laerm;70900;51.798;10.954;2023-08-31T12:06:51;55.99;46.70;70.40;;
81493;Laerm;70900;51.798;10.954;2023-08-31T12:09:16;58.35;49.05;72.41;;
81493;Laerm;70900;51.798;10.954;2023-08-31T12:11:48;59.10;47.01;73.69;;
81493;Laerm;70900;51.798;10.954;2023-08-31T12:14:20;60.20;47.64;73.02;;
81493;Laerm;70900;51.798;10.954;2023-08-31T12:16:46;62.29;48.75;74.36;;
81493;Laerm;70900;51.798;10.954;2023-08-31T12:19:11;66.85;53.85;82.53;;
81493;Laerm;70900;51.798;10.954;2023-08-31T12:21:37;61.05;49.38;72.77;;
81493;Laerm;70900;51.798;10.954;2023-08-31T12:24:04;53.83;45.92;73.08;;
81493;Laerm;70900;51.798;10.954;2023-08-31T12:26:31;60.90;41.66;75.14;;
81493;Laerm;70900;51.798;10.954;2023-08-31T12:28:56;57.01;42.14;71.99;;
81493;Laerm;70900;51.798;10.954;2023-08-31T12:31:22;44.44;39.85;56.58;;
81493;Laerm;70900;51.798;10.954;2023-08-31T12:33:48;60.71;39.83;75.92;;
81493;Laerm;70900;51.798;10.954;2023-08-31T12:36:13;53.00;39.88;68.36;;
81493;Laerm;70900;51.798;10.954;2023-08-31T12:38:39;57.61;38.93;69.86;;
81493;Laerm;70900;51.798;10.954;2023-08-31T12:41:04;55.99;38.85;69.49;;
81493;Laerm;70900;51.798;10.954;2023-08-31T12:43:30;49.98;39.58;62.86;;
81493;Laerm;70900;51.798;10.954;2023-08-31T12:45:56;54.94;40.95;64.94;;
81493;Laerm;70900;51.798;10.954;2023-08-31T12:48:21;55.99;39.66;69.86;;
81493;Laerm;70900;51.798;10.954;2023-08-31T12:50:47;62.06;46.62;71.10;;
81493;Laerm;70900;51.798;10.954;2023-08-31T12:53:13;57.68;41.12;71.24;;
81493;Laerm;70900;51.798;10.954;2023-08-31T12:55:39;56.39;39.15;70.61;;
81493;Laerm;70900;51.798;10.954;2023-08-31T12:58:04;55.00;40.94;66.30;;
81493;Laerm;70900;51.798;10.954;2023-08-31T13:00:29;54.16;41.48;65.08;;
81493;Laerm;70900;51.798;10.954;2023-08-31T13:02:55;58.41;43.07;69.11;;
81493;Laerm;70900;51.798;10.954;2023-08-31T13:05:20;60.37;41.58;83.86;;
81493;Laerm;70900;51.798;10.954;2023-08-31T13:07:46;59.88;41.12;70.40;;
81493;Laerm;70900;51.798;10.954;2023-08-31T13:10:11;54.53;37.30;69.00;;
81493;Laerm;70900;51.798;10.954;2023-08-31T13:12:37;53.91;38.80;65.94;;
81493;Laerm;70900;51.798;10.954;2023-08-31T13:15:02;56.89;38.64;67.97;;
81493;Laerm;70900;51.798;10.954;2023-08-31T13:17:28;58.07;41.30;69.22;;
81493;Laerm;70900;51.798;10.954;2023-08-31T13:19:53;56.98;37.79;70.83;;
81493;Laerm;70900;51.798;10.954;2023-08-31T13:22:19;60.12;40.71;74.54;;
81493;Laerm;70900;51.798;10.954;2023-08-31T13:24:45;60.96;44.62;74.74;;
81493;Laerm;70900;51.798;10.954;2023-08-31T13:27:10;59.16;42.11;70.81;;
81493;Laerm;70900;51.798;10.954;2023-08-31T13:29:36;54.88;38.96;67.90;;
81493;Laerm;70900;51.798;10.954;2023-08-31T13:32:01;57.48;41.84;70.48;;
81493;Laerm;70900;51.798;10.954;2023-08-31T13:34:27;60.05;47.45;74.76;;
81493;Laerm;70900;51.798;10.954;2023-08-31T13:36:53;61.05;47.65;72.51;;
81493;Laerm;70900;51.798;10.954;2023-08-31T13:39:19;56.15;47.24;69.66;;
81493;Laerm;70900;51.798;10.954;2023-08-31T13:41:44;61.84;46.68;71.73;;